Time;durP1;ratioP1;P1;durP2;ratioP2;P2;SDS_P1;SDS_P2;PMS_P1;PMS_P2;Temp;Humidity;BMP_temperature;BMP_pressure;BME280_temperature;BME280_humidity;BME280_pressure;Samples;Min_cycle;Max_cycle;Signal;HPM_P1;HPM_P2
2023/04/28 00:02:17;;;;;;;21.27;9.02;;;4.40;66.80;;;;;;4865666;29;20109;-91
2023/04/28 00:04:44;;;;;;;20.58;9.45;;;4.30;67.20;;;;;;4865237;29;20102;-90
2023/04/28 00:07:12;;;;;;;21.92;10.30;;;4.30;67.20;;;;;;4880413;29;20041;-90
2023/04/28 00:09:39;;;;;;;21.33;9.23;;;4.30;67.50;;;;;;4865614;29;20069;-90
2023/04/28 00:12:06;;;;;;;24.08;9.52;;;4.30;67.80;;;;;;4866730;29;20048;-90
2023/04/28 00:14:33;;;;;;;20.58;10.00;;;4.30;67.50;;;;;;4865960;29;20072;-90
2023/04/28 00:17:00;;;;;;;23.15;10.18;;;4.30;67.80;;;;;;4866319;29;20076;-90
2023/04/28 00:19:30;;;;;;;21.95;10.02;;;4.20;67.90;;;;;;4866066;29;20065;-90
2023/04/28 00:21:58;;;;;;;25.50;11.03;;;4.20;68.10;;;;;;4881230;29;20056;-90
2023/04/28 00:24:25;;;;;;;25.90;10.60;;;4.20;68.30;;;;;;4865614;29;20477;-90
2023/04/28 00:26:52;;;;;;;23.83;10.25;;;4.20;68.30;;;;;;4880510;29;20419;-90
2023/04/28 00:29:19;;;;;;;22.35;10.25;;;4.20;68.40;;;;;;4864620;29;20052;-90
2023/04/28 00:31:46;;;;;;;19.50;9.32;;;4.20;68.30;;;;;;4880492;29;20041;-90
2023/04/28 00:34:13;;;;;;;23.70;10.80;;;4.10;68.60;;;;;;4863477;29;20055;-90
2023/04/28 00:36:41;;;;;;;24.60;10.95;;;4.10;68.80;;;;;;4873731;29;20049;-90
2023/04/28 00:39:08;;;;;;;23.05;10.85;;;4.10;68.90;;;;;;4883627;29;20507;-89
2023/04/28 00:41:36;;;;;;;23.20;9.48;;;4.10;68.90;;;;;;4884635;29;20045;-89
2023/04/28 00:44:03;;;;;;;20.70;9.95;;;4.00;68.70;;;;;;4897229;29;20072;-90
2023/04/28 00:46:32;;;;;;;20.80;10.07;;;4.00;68.80;;;;;;4884733;29;20059;-90
2023/04/28 00:48:59;;;;;;;23.88;8.48;;;4.00;68.70;;;;;;4900664;29;20096;-91
2023/04/28 00:51:29;;;;;;;21.88;9.55;;;4.00;68.70;;;;;;4884872;29;20045;-90
2023/04/28 00:53:56;;;;;;;18.40;9.35;;;4.00;69.00;;;;;;4900095;29;20056;-90
2023/04/28 00:56:26;;;;;;;20.33;10.02;;;4.00;69.10;;;;;;4884609;29;20132;-90
2023/04/28 00:58:53;;;;;;;35.97;10.53;;;4.00;69.10;;;;;;4884869;29;20045;-91
2023/04/28 01:01:20;;;;;;;20.25;9.77;;;4.00;69.10;;;;;;4899635;29;20136;-90
2023/04/28 01:03:48;;;;;;;23.73;10.73;;;4.00;69.30;;;;;;4900134;29;20167;-90
2023/04/28 01:06:17;;;;;;;24.20;9.98;;;4.00;69.40;;;;;;4884080;29;20147;-90
2023/04/28 01:08:47;;;;;;;23.58;9.75;;;3.90;69.20;;;;;;4898284;29;20403;-91
2023/04/28 01:11:16;;;;;;;23.27;10.93;;;3.90;69.50;;;;;;4898107;29;20101;-90
2023/04/28 01:14:05;;;;;;;23.90;10.35;;;3.90;69.70;;;;;;4899204;29;20048;-90
2023/04/28 01:16:37;;;;;;;22.05;10.50;;;3.90;69.70;;;;;;4884050;29;20503;-90
2023/04/28 01:19:15;;;;;;;20.02;9.20;;;3.80;69.80;;;;;;4884203;29;20040;-90
2023/04/28 01:21:43;;;;;;;20.23;9.57;;;3.80;69.80;;;;;;4898890;29;20048;-90
2023/04/28 01:24:20;;;;;;;19.50;9.63;;;3.80;69.60;;;;;;4892450;29;20135;-90
2023/04/28 01:26:47;;;;;;;19.88;9.85;;;3.70;69.80;;;;;;4886763;29;20044;-90
2023/04/28 01:29:14;;;;;;;24.33;9.48;;;3.70;69.70;;;;;;4899163;29;20040;-90
2023/04/28 01:31:41;;;;;;;21.80;9.75;;;3.70;69.80;;;;;;4898636;29;20045;-90
2023/04/28 01:34:09;;;;;;;20.52;8.85;;;3.80;69.70;;;;;;4882048;29;20045;-90
2023/04/28 01:36:36;;;;;;;18.87;8.53;;;3.80;69.50;;;;;;4904589;29;20060;-90
2023/04/28 01:39:04;;;;;;;20.85;9.45;;;3.80;69.50;;;;;;4908978;29;20459;-90
2023/04/28 01:41:34;;;;;;;19.00;8.88;;;3.80;69.50;;;;;;4906232;29;20135;-90
2023/04/28 01:44:04;;;;;;;22.73;9.30;;;3.80;69.60;;;;;;4897071;29;20041;-90
2023/04/28 01:46:32;;;;;;;16.48;8.65;;;3.80;69.40;;;;;;4898889;29;21129;-90
2023/04/28 01:49:00;;;;;;;21.37;8.87;;;3.70;69.60;;;;;;4880497;29;20048;-90
2023/04/28 01:51:27;;;;;;;20.95;8.32;;;3.70;69.90;;;;;;4883369;29;20559;-90
2023/04/28 01:53:54;;;;;;;19.42;9.18;;;3.70;69.60;;;;;;4882678;29;20079;-91
2023/04/28 01:56:21;;;;;;;19.08;8.32;;;3.70;69.70;;;;;;4882539;29;20062;-89
2023/04/28 01:58:50;;;;;;;18.70;8.68;;;3.70;69.70;;;;;;4882937;29;20120;-89
2023/04/28 02:01:17;;;;;;;18.50;8.43;;;3.70;69.50;;;;;;4898412;29;20048;-89
2023/04/28 02:03:44;;;;;;;18.40;8.57;;;3.80;69.40;;;;;;4882609;29;20076;-90
2023/04/28 02:06:12;;;;;;;17.75;8.10;;;3.80;69.20;;;;;;4898678;29;20036;-89
2023/04/28 02:08:39;;;;;;;21.05;8.70;;;3.70;69.40;;;;;;4890651;29;20079;-89
2023/04/28 02:11:06;;;;;;;17.45;8.15;;;3.70;69.50;;;;;;4897680;29;20044;-89
2023/04/28 02:13:33;;;;;;;23.30;8.33;;;3.70;69.70;;;;;;4898171;29;20072;-90
2023/04/28 02:16:01;;;;;;;18.95;9.15;;;3.70;69.90;;;;;;4896181;29;20064;-90
2023/04/28 02:18:28;;;;;;;15.90;7.88;;;3.60;69.90;;;;;;4891891;29;20049;-90
2023/04/28 02:21:10;;;;;;;21.10;8.45;;;3.60;70.10;;;;;;4882890;29;20140;-90
2023/04/28 02:23:38;;;;;;;17.30;8.60;;;3.60;70.00;;;;;;4880756;29;20045;-90
2023/04/28 02:26:05;;;;;;;15.90;7.00;;;3.60;69.70;;;;;;4904883;29;20057;-90
2023/04/28 02:28:32;;;;;;;17.08;7.97;;;3.60;69.90;;;;;;4888332;29;20404;-90
2023/04/28 02:31:06;;;;;;;16.35;7.45;;;3.60;70.20;;;;;;4890957;29;20096;-89
2023/04/28 02:33:34;;;;;;;17.40;8.35;;;3.50;70.30;;;;;;4897830;29;20057;-90
2023/04/28 02:36:03;;;;;;;20.73;8.77;;;3.50;70.50;;;;;;4897733;29;20056;-90
2023/04/28 02:38:30;;;;;;;17.47;8.27;;;3.40;70.40;;;;;;4897902;29;20407;-90
2023/04/28 02:41:01;;;;;;;19.50;9.15;;;3.50;70.60;;;;;;4898227;29;20080;-90
2023/04/28 02:43:31;;;;;;;19.33;8.45;;;3.50;70.50;;;;;;4897491;29;20487;-90
2023/04/28 02:45:59;;;;;;;18.63;8.43;;;3.50;70.40;;;;;;4882556;29;20043;-89
2023/04/28 02:48:29;;;;;;;20.02;8.23;;;3.50;70.40;;;;;;4896429;29;20053;-89
2023/04/28 02:50:56;;;;;;;18.80;8.67;;;3.50;70.60;;;;;;4882830;29;20045;-90
2023/04/28 02:53:26;;;;;;;22.70;8.48;;;3.50;70.30;;;;;;4898530;29;20537;-90
2023/04/28 02:55:56;;;;;;;17.15;7.60;;;3.50;70.50;;;;;;4905242;29;20119;-90
2023/04/28 02:58:24;;;;;;;21.73;8.60;;;3.60;70.50;;;;;;4904908;29;20404;-90
2023/04/28 03:00:51;;;;;;;18.55;8.30;;;3.50;70.40;;;;;;4907108;29;20056;-90
2023/04/28 03:03:18;;;;;;;14.97;7.33;;;3.50;70.70;;;;;;4893863;29;20380;-90
2023/04/28 03:05:45;;;;;;;16.90;8.27;;;3.50;70.60;;;;;;4886279;29;20044;-90
2023/04/28 03:08:12;;;;;;;21.00;8.35;;;3.60;70.60;;;;;;4880966;29;20127;-90
2023/04/28 03:10:39;;;;;;;18.80;8.35;;;3.60;70.80;;;;;;4887179;29;20064;-90
2023/04/28 03:13:06;;;;;;;21.00;9.20;;;3.60;70.60;;;;;;4895478;29;20131;-90
2023/04/28 03:15:33;;;;;;;20.47;8.47;;;3.60;70.60;;;;;;4894943;29;20083;-90
2023/04/28 03:18:00;;;;;;;18.02;8.10;;;3.50;70.60;;;;;;4902457;29;20037;-90
2023/04/28 03:20:28;;;;;;;17.23;7.15;;;3.60;70.70;;;;;;4885123;29;20045;-90
2023/04/28 03:22:55;;;;;;;19.83;8.82;;;3.60;70.10;;;;;;4902958;29;20085;-90
2023/04/28 03:25:22;;;;;;;18.10;7.97;;;3.60;70.20;;;;;;4895771;29;20034;-90
2023/04/28 03:27:50;;;;;;;16.60;8.13;;;3.60;70.10;;;;;;4881407;29;20058;-90
2023/04/28 03:30:17;;;;;;;19.90;8.15;;;3.60;69.90;;;;;;4895181;29;20065;-90
2023/04/28 03:32:45;;;;;;;17.65;8.25;;;3.70;70.10;;;;;;4896243;29;20040;-90
2023/04/28 03:35:12;;;;;;;18.65;8.55;;;3.70;69.90;;;;;;4896080;29;20514;-90
2023/04/28 03:37:40;;;;;;;17.48;8.48;;;3.70;69.10;;;;;;4881334;29;20072;-90
2023/04/28 03:40:08;;;;;;;17.60;7.87;;;3.80;69.60;;;;;;4864337;29;20041;-90
2023/04/28 03:42:52;;;;;;;15.05;7.80;;;3.80;69.10;;;;;;4865707;29;20040;-90
2023/04/28 03:45:27;;;;;;;17.13;7.88;;;3.80;68.90;;;;;;4866573;29;20376;-90
2023/04/28 03:47:54;;;;;;;15.02;7.53;;;3.90;68.70;;;;;;4894794;29;20056;-90
2023/04/28 03:50:21;;;;;;;15.10;6.70;;;3.90;68.40;;;;;;4865720;29;20044;-90
2023/04/28 03:52:51;;;;;;;18.60;7.73;;;3.90;68.40;;;;;;4873875;29;20044;-90
2023/04/28 03:55:18;;;;;;;19.15;8.05;;;3.90;68.70;;;;;;4880818;29;20075;-90
2023/04/28 03:57:46;;;;;;;15.70;7.60;;;3.90;68.80;;;;;;4865631;29;20086;-90
2023/04/28 04:00:13;;;;;;;16.98;7.75;;;3.90;68.40;;;;;;4867780;29;20474;-90
2023/04/28 04:02:46;;;;;;;17.73;7.30;;;3.90;68.40;;;;;;4870726;29;20048;-90
2023/04/28 04:05:14;;;;;;;18.43;6.80;;;3.90;68.60;;;;;;4879595;29;20051;-90
2023/04/28 04:07:42;;;;;;;17.13;8.27;;;3.90;68.40;;;;;;4880381;29;20101;-90
2023/04/28 04:10:09;;;;;;;15.57;7.55;;;3.90;68.20;;;;;;4892202;29;20044;-90
2023/04/28 04:12:39;;;;;;;16.20;7.78;;;4.00;68.30;;;;;;4866708;29;20045;-90
2023/04/28 04:15:07;;;;;;;16.58;7.40;;;4.00;68.10;;;;;;4882424;29;20044;-90
2023/04/28 04:17:34;;;;;;;17.10;7.70;;;4.00;68.20;;;;;;4869415;29;20131;-90
2023/04/28 04:20:02;;;;;;;14.52;7.13;;;4.00;68.20;;;;;;4869185;29;20043;-90
2023/04/28 04:22:29;;;;;;;15.43;7.63;;;4.00;68.10;;;;;;4882489;29;20044;-90
2023/04/28 04:24:55;;;;;;;18.55;7.65;;;4.10;68.20;;;;;;4884189;29;20049;-90
2023/04/28 04:27:24;;;;;;;16.00;7.32;;;4.10;67.80;;;;;;4867539;29;20044;-90
2023/04/28 04:29:52;;;;;;;16.43;7.60;;;4.20;67.70;;;;;;4897410;29;20041;-92
2023/04/28 04:32:19;;;;;;;14.95;7.30;;;4.20;67.40;;;;;;4886061;29;20048;-93
2023/04/28 04:34:46;;;;;;;18.02;7.55;;;4.30;67.20;;;;;;4870220;29;20053;-92
2023/04/28 04:37:14;;;;;;;17.92;7.22;;;4.30;67.40;;;;;;4885194;29;20063;-93
2023/04/28 04:39:47;;;;;;;15.43;7.20;;;4.30;67.60;;;;;;4901491;29;20451;-94
2023/04/28 04:42:15;;;;;;;14.73;7.20;;;4.30;67.30;;;;;;4885296;29;20044;-91
2023/04/28 04:45:09;;;;;;;14.25;6.40;;;4.40;67.10;;;;;;4910526;29;20399;-90
2023/04/28 04:47:37;;;;;;;13.93;7.35;;;4.40;67.10;;;;;;4899776;29;20293;-91
2023/04/28 04:50:07;;;;;;;15.02;6.20;;;4.50;67.20;;;;;;4890393;29;20529;-92
2023/04/28 04:52:34;;;;;;;14.43;7.20;;;4.50;66.70;;;;;;4901442;29;20494;-91
2023/04/28 04:55:01;;;;;;;13.70;6.77;;;4.50;67.00;;;;;;4885113;29;20503;-91
2023/04/28 04:57:29;;;;;;;15.43;7.43;;;4.50;66.80;;;;;;4894426;29;20060;-91
2023/04/28 05:00:28;;;;;;;14.90;7.40;;;4.50;66.90;;;;;;4868865;29;20049;-90
2023/04/28 05:02:55;;;;;;;14.00;7.22;;;4.50;66.70;;;;;;4899417;29;20049;-90
2023/04/28 05:05:22;;;;;;;15.77;6.65;;;4.60;67.10;;;;;;4884522;29;20040;-91
2023/04/28 05:08:11;;;;;;;17.87;6.73;;;4.70;67.20;;;;;;4899544;29;20061;-92
2023/04/28 05:10:38;;;;;;;16.05;7.57;;;4.70;66.40;;;;;;4878961;29;20499;-92
2023/04/28 05:13:06;;;;;;;14.30;7.35;;;4.80;66.70;;;;;;4907918;29;20048;-90
2023/04/28 05:15:33;;;;;;;16.23;7.20;;;4.80;66.20;;;;;;4898044;29;20051;-91
2023/04/28 05:18:18;;;;;;;14.77;7.38;;;4.90;66.10;;;;;;4891515;29;20036;-90
2023/04/28 05:20:46;;;;;;;16.30;7.40;;;5.00;66.30;;;;;;4895923;29;20048;-90
2023/04/28 05:23:15;;;;;;;15.27;6.93;;;5.20;66.30;;;;;;4898775;29;20574;-91
2023/04/28 05:25:46;;;;;;;12.75;6.80;;;5.40;65.00;;;;;;4883382;29;20411;-95
2023/04/28 05:28:13;;;;;;;17.75;7.47;;;5.50;65.30;;;;;;4883607;29;20055;-91
2023/04/28 05:30:43;;;;;;;15.25;6.85;;;5.70;65.50;;;;;;4899046;29;20076;-93
2023/04/28 05:33:12;;;;;;;14.97;6.60;;;5.90;64.30;;;;;;4887372;29;20507;-93
2023/04/28 05:35:40;;;;;;;19.17;7.95;;;5.90;63.60;;;;;;4884340;29;20048;-93
2023/04/28 05:38:07;;;;;;;12.57;6.65;;;6.00;63.70;;;;;;4899352;29;20040;-93
2023/04/28 05:40:34;;;;;;;12.95;6.63;;;6.20;63.00;;;;;;4899274;29;20053;-94
2023/04/28 05:43:04;;;;;;;13.68;6.70;;;6.30;63.40;;;;;;4899229;29;20399;-93
2023/04/28 05:45:31;;;;;;;13.03;5.90;;;6.50;63.00;;;;;;4899165;29;20044;-93
2023/04/28 05:47:58;;;;;;;13.73;6.38;;;6.50;61.50;;;;;;4899358;29;20517;-94
2023/04/28 05:50:26;;;;;;;13.88;6.80;;;6.60;61.90;;;;;;4899102;29;20040;-93
2023/04/28 05:52:53;;;;;;;15.40;6.47;;;6.60;62.20;;;;;;4883609;29;20052;-93
2023/04/28 05:55:21;;;;;;;13.13;6.15;;;6.70;62.00;;;;;;4900736;29;20055;-95
2023/04/28 05:57:49;;;;;;;14.40;6.43;;;6.80;61.20;;;;;;4901152;29;20503;-95
2023/04/28 06:00:22;;;;;;;13.43;6.50;;;6.90;61.40;;;;;;4902609;29;20052;-95
2023/04/28 06:02:52;;;;;;;12.38;6.10;;;7.00;60.30;;;;;;4901483;29;20127;-90
2023/04/28 06:05:21;;;;;;;13.10;6.25;;;7.10;60.10;;;;;;4900416;29;20045;-94
2023/04/28 06:07:51;;;;;;;11.82;5.30;;;7.20;59.80;;;;;;4885133;29;20502;-93
2023/04/28 06:10:22;;;;;;;10.77;5.47;;;7.40;59.80;;;;;;4900402;29;20108;-92
2023/04/28 06:12:49;;;;;;;11.50;4.80;;;7.50;58.80;;;;;;4886953;29;20048;-94
2023/04/28 06:15:17;;;;;;;12.13;5.38;;;7.70;59.20;;;;;;4884778;29;20055;-94
2023/04/28 06:17:44;;;;;;;13.35;5.43;;;7.90;58.70;;;;;;4901782;29;20455;-93
2023/04/28 06:20:12;;;;;;;10.93;5.18;;;8.10;58.30;;;;;;4885241;29;20056;-94
2023/04/28 06:22:40;;;;;;;13.43;5.13;;;8.30;58.90;;;;;;4900338;29;20045;-95
2023/04/28 06:25:08;;;;;;;11.77;5.00;;;8.50;57.80;;;;;;4884759;29;20075;-93
2023/04/28 06:27:42;;;;;;;11.43;5.00;;;8.70;56.50;;;;;;4899825;29;20040;-94
2023/04/28 06:30:19;;;;;;;12.38;4.70;;;8.90;57.10;;;;;;4900325;29;20055;-94
2023/04/28 06:32:46;;;;;;;12.60;3.72;;;9.00;54.50;;;;;;4888459;29;20101;-94
2023/04/28 06:35:14;;;;;;;10.57;4.23;;;9.10;54.10;;;;;;4885908;29;20159;-95
2023/04/28 06:41:43;;;;;;;13.20;4.15;;;9.40;53.90;;;;;;4902209;29;20060;-94
2023/04/28 06:44:12;;;;;;;9.80;3.78;;;9.50;53.80;;;;;;4885487;29;20533;-95
2023/04/28 06:46:39;;;;;;;8.45;3.58;;;9.70;54.00;;;;;;4870652;29;20048;-95
2023/04/28 06:49:21;;;;;;;8.87;2.90;;;9.80;52.90;;;;;;4869413;29;20062;-93
2023/04/28 06:52:02;;;;;;;9.50;3.58;;;9.90;51.10;;;;;;4884365;29;20072;-94
2023/04/28 06:54:31;;;;;;;9.45;3.55;;;10.00;53.30;;;;;;4883924;29;20052;-92
2023/04/28 06:56:59;;;;;;;10.80;3.90;;;10.20;52.20;;;;;;4883991;29;20529;-93
2023/04/28 06:59:30;;;;;;;12.00;3.50;;;10.30;51.80;;;;;;4868127;29;20144;-93
2023/04/28 07:02:01;;;;;;;13.73;3.90;;;10.50;52.10;;;;;;4870101;29;20553;-92
2023/04/28 07:04:28;;;;;;;9.95;3.70;;;10.70;49.80;;;;;;4868569;29;20107;-93
2023/04/28 07:06:56;;;;;;;10.43;3.17;;;10.80;49.10;;;;;;4885268;29;20503;-93
2023/04/28 07:09:23;;;;;;;9.07;2.97;;;10.90;49.90;;;;;;4868418;29;20056;-93
2023/04/28 07:11:50;;;;;;;9.43;3.53;;;11.00;47.70;;;;;;4868698;29;20056;-92
2023/04/28 07:14:17;;;;;;;7.90;3.03;;;10.90;48.10;;;;;;4884308;29;20044;-93
2023/04/28 07:16:45;;;;;;;7.85;3.17;;;10.90;48.40;;;;;;4884517;29;20048;-93
2023/04/28 07:19:12;;;;;;;8.95;3.30;;;11.00;49.50;;;;;;4884044;29;20048;-93
2023/04/28 07:21:39;;;;;;;8.07;2.80;;;11.10;48.80;;;;;;4869110;29;20112;-93
2023/04/28 07:24:06;;;;;;;12.35;3.28;;;11.20;48.80;;;;;;4868601;29;20153;-93
2023/04/28 07:26:57;;;;;;;6.90;2.67;;;11.40;48.80;;;;;;4867703;29;20410;-92
2023/04/28 07:34:41;;;;;;;7.97;3.38;;;11.70;49.10;;;;;;4861194;29;20094;-94
2023/04/28 07:38:01;;;;;;;8.38;2.85;;;12.00;48.70;;;;;;4815475;29;20141;-92
2023/04/28 08:09:37;;;;;;;8.10;3.17;;;12.90;46.90;;;;;;4809252;29;20524;-92
2023/04/28 08:13:02;;;;;;;8.57;3.20;;;12.80;48.00;;;;;;4810296;29;20138;-90
2023/04/28 08:21:05;;;;;;;11.02;3.80;;;12.90;46.60;;;;;;4754894;30;20043;-92
2023/04/28 08:28:14;;;;;;;11.07;4.20;;;12.70;46.40;;;;;;4772169;29;20051;-88
2023/04/28 08:48:05;;;;;;;11.47;3.47;;;14.00;46.00;;;;;;4819686;29;20087;-95
2023/04/28 08:50:35;;;;;;;10.48;3.60;;;14.10;46.40;;;;;;4827779;29;20496;-95
2023/04/28 08:53:03;;;;;;;10.68;3.95;;;14.20;45.40;;;;;;4828612;29;20062;-96
2023/04/28 08:55:35;;;;;;;13.27;3.88;;;14.20;44.60;;;;;;4812765;29;20047;-96
2023/04/28 09:02:40;;;;;;;9.77;2.83;;;14.40;43.80;;;;;;4831137;29;20053;-96
2023/04/28 09:11:02;;;;;;;10.40;3.33;;;14.60;43.30;;;;;;4829430;29;20043;-96
2023/04/28 09:18:14;;;;;;;10.20;2.97;;;14.80;42.80;;;;;;4897557;29;20043;-91
2023/04/28 09:20:43;;;;;;;11.73;3.00;;;15.10;43.60;;;;;;4869024;29;20102;-96
2023/04/28 09:23:19;;;;;;;10.15;3.03;;;15.30;44.10;;;;;;4884520;29;20059;-96
2023/04/28 09:26:05;;;;;;;11.73;4.20;;;15.30;43.70;;;;;;4867186;29;20087;-96
2023/04/28 09:28:34;;;;;;;12.25;3.70;;;15.30;43.60;;;;;;4883306;29;20151;-96
2023/04/28 09:31:01;;;;;;;9.85;2.90;;;15.30;42.10;;;;;;4869188;29;20432;-96
2023/04/28 09:33:29;;;;;;;7.27;2.63;;;15.20;42.60;;;;;;4868478;29;20151;-96
2023/04/28 09:35:56;;;;;;;8.68;3.00;;;15.30;42.50;;;;;;4854239;29;20084;-96
2023/04/28 09:38:24;;;;;;;10.32;3.03;;;15.50;42.70;;;;;;4883501;29;20048;-96
2023/04/28 09:40:59;;;;;;;8.35;2.60;;;15.60;41.10;;;;;;4899247;29;20057;-96
2023/04/28 09:43:32;;;;;;;10.15;3.42;;;15.70;41.10;;;;;;4900594;29;20567;-96
2023/04/28 09:46:01;;;;;;;10.67;3.33;;;15.70;40.80;;;;;;4900150;29;20049;-96
2023/04/28 09:48:39;;;;;;;12.13;3.03;;;15.80;41.50;;;;;;4898425;29;20571;-96
2023/04/28 09:51:07;;;;;;;10.85;2.75;;;15.80;39.40;;;;;;4901290;29;20041;-96
2023/04/28 09:53:37;;;;;;;9.80;2.80;;;15.80;42.50;;;;;;4898869;29;20049;-96
2023/04/28 09:56:09;;;;;;;12.32;3.15;;;15.90;42.20;;;;;;4882108;29;20464;-96
2023/04/28 09:58:41;;;;;;;10.33;2.70;;;15.90;42.00;;;;;;4898112;29;20053;-96
2023/04/28 10:01:10;;;;;;;7.63;2.30;;;15.80;40.70;;;;;;4899145;29;20143;-96
2023/04/28 10:03:41;;;;;;;8.20;3.03;;;15.80;41.30;;;;;;4899581;29;20504;-96
2023/04/28 10:06:09;;;;;;;8.35;2.90;;;15.90;42.70;;;;;;4899809;29;20049;-96
2023/04/28 10:08:38;;;;;;;9.73;3.22;;;16.10;41.10;;;;;;4901600;29;20077;-96
2023/04/28 10:11:13;;;;;;;6.53;1.90;;;16.10;40.50;;;;;;4889388;29;20057;-96
2023/04/28 10:17:49;;;;;;;8.45;2.17;;;16.20;40.20;;;;;;4884583;29;20081;-96
2023/04/28 10:20:17;;;;;;;9.23;2.40;;;16.30;39.20;;;;;;4872550;29;20060;-96
2023/04/28 10:22:44;;;;;;;8.13;2.78;;;16.50;40.40;;;;;;4852860;29;20499;-96
2023/04/28 10:25:28;;;;;;;9.03;1.87;;;16.60;41.40;;;;;;4867167;29;20077;-96
2023/04/28 10:27:58;;;;;;;9.27;2.17;;;16.50;41.90;;;;;;4869547;29;20049;-96
2023/04/28 10:30:27;;;;;;;6.18;1.92;;;16.50;40.10;;;;;;4870873;29;20049;-96
2023/04/28 10:33:05;;;;;;;7.45;2.10;;;16.40;40.60;;;;;;4855441;29;20041;-96
2023/04/28 10:35:35;;;;;;;7.35;2.10;;;16.60;40.00;;;;;;4885318;29;20060;-96
2023/04/28 10:38:15;;;;;;;6.53;2.00;;;16.60;39.60;;;;;;4887421;29;20087;-96
2023/04/28 10:40:43;;;;;;;6.93;1.83;;;16.80;39.40;;;;;;4853825;29;20572;-96
2023/04/28 10:43:13;;;;;;;5.28;1.80;;;16.80;36.60;;;;;;4854026;29;20061;-96
2023/04/28 10:45:55;;;;;;;8.15;1.77;;;16.80;37.20;;;;;;4883192;29;20045;-96
2023/04/28 10:48:33;;;;;;;6.05;1.88;;;16.80;38.70;;;;;;4885276;29;20057;-96
2023/04/28 10:51:06;;;;;;;6.73;1.70;;;16.70;38.80;;;;;;4884793;29;20060;-96
2023/04/28 10:53:43;;;;;;;28.52;4.30;;;16.70;39.40;;;;;;4885859;29;20049;-96
2023/04/28 10:56:14;;;;;;;20.40;2.47;;;16.70;39.70;;;;;;4883730;29;20144;-96
2023/04/28 12:39:42;;;;;;;5.03;1.73;;;16.60;41.40;;;;;;5103794;27;20395;-89
2023/04/28 12:42:09;;;;;;;7.38;2.33;;;17.70;36.70;;;;;;5070287;28;20055;-89
2023/04/28 12:44:37;;;;;;;8.03;2.00;;;17.70;38.30;;;;;;5069990;28;20569;-89
2023/04/28 12:47:09;;;;;;;11.30;2.03;;;17.50;39.20;;;;;;5070236;28;20053;-89
2023/04/28 12:49:37;;;;;;;9.15;2.05;;;17.50;38.20;;;;;;5069777;28;20053;-89
2023/04/28 12:52:05;;;;;;;6.15;2.08;;;17.50;38.00;;;;;;5070516;28;20115;-89
2023/04/28 12:54:32;;;;;;;17.55;2.75;;;17.70;39.00;;;;;;5070086;28;20056;-90
2023/04/28 12:57:00;;;;;;;9.83;2.10;;;18.00;39.10;;;;;;5069739;28;20045;-89
2023/04/28 12:59:28;;;;;;;7.13;2.05;;;17.90;38.90;;;;;;5069619;28;20069;-89
2023/04/28 13:01:55;;;;;;;7.07;2.40;;;17.60;38.30;;;;;;5053362;28;20063;-89
2023/04/28 13:04:22;;;;;;;6.20;2.60;;;17.50;37.60;;;;;;5069809;28;20506;-89
2023/04/28 13:06:51;;;;;;;7.45;3.35;;;17.50;39.40;;;;;;5053426;28;20498;-89
2023/04/28 13:09:18;;;;;;;10.50;2.30;;;17.60;39.50;;;;;;5069447;28;20049;-89
2023/04/28 13:11:45;;;;;;;10.10;2.38;;;17.60;39.10;;;;;;5069342;28;20037;-90
2023/04/28 13:14:12;;;;;;;7.63;1.90;;;17.70;38.20;;;;;;5069371;28;20045;-90
2023/04/28 13:16:39;;;;;;;5.38;1.70;;;17.80;37.50;;;;;;5052956;28;20040;-90
2023/04/28 13:19:09;;;;;;;7.57;1.67;;;17.70;37.00;;;;;;5069146;28;20547;-90
2023/04/28 13:21:37;;;;;;;5.50;1.80;;;17.70;37.90;;;;;;5069357;28;20060;-90
2023/04/28 13:24:05;;;;;;;6.90;2.08;;;17.80;38.20;;;;;;5069126;28;20041;-89
2023/04/28 13:26:33;;;;;;;5.45;1.88;;;17.70;37.10;;;;;;5069362;28;20044;-89
2023/04/28 13:29:01;;;;;;;8.40;1.80;;;17.60;37.70;;;;;;5069186;28;20067;-90
2023/04/28 13:31:29;;;;;;;5.07;1.80;;;17.60;38.00;;;;;;5069076;28;20057;-90
2023/04/28 13:33:57;;;;;;;9.13;2.00;;;17.80;37.70;;;;;;5068983;28;20062;-90
2023/04/28 13:36:25;;;;;;;5.90;2.00;;;18.00;37.90;;;;;;5068986;28;20445;-90
2023/04/28 13:38:52;;;;;;;8.10;2.20;;;18.10;36.90;;;;;;5064810;28;20049;-90
2023/04/28 13:41:20;;;;;;;9.00;1.73;;;18.20;37.50;;;;;;5055522;28;20045;-90
2023/04/28 13:43:47;;;;;;;9.07;1.75;;;18.40;37.90;;;;;;5055603;28;20076;-90
2023/04/28 13:46:14;;;;;;;6.30;1.80;;;18.50;38.10;;;;;;5038977;28;20084;-89
2023/04/28 13:48:41;;;;;;;5.10;1.60;;;18.60;37.20;;;;;;5055503;28;20041;-89
2023/04/28 13:51:08;;;;;;;6.03;1.98;;;18.60;37.00;;;;;;5055682;28;20080;-90
2023/04/28 13:53:38;;;;;;;5.63;2.13;;;18.50;35.90;;;;;;5055355;28;20060;-90
2023/04/28 13:56:06;;;;;;;4.57;1.58;;;18.30;35.90;;;;;;5055465;28;20073;-90
2023/04/28 13:58:33;;;;;;;7.73;1.80;;;18.20;37.20;;;;;;5055039;28;20144;-90
2023/04/28 14:01:02;;;;;;;6.20;1.63;;;18.40;36.70;;;;;;5055314;28;20052;-89
2023/04/28 14:03:30;;;;;;;7.78;1.70;;;18.60;35.50;;;;;;5055191;28;20525;-94
2023/04/28 14:05:57;;;;;;;6.63;1.70;;;18.70;36.10;;;;;;5055329;28;20040;-94
2023/04/28 14:08:25;;;;;;;5.43;1.80;;;18.80;36.90;;;;;;5055010;28;20160;-94
2023/04/28 14:10:53;;;;;;;7.80;2.30;;;18.80;35.60;;;;;;5055269;28;20486;-94
2023/04/28 14:13:20;;;;;;;6.25;1.83;;;18.70;37.30;;;;;;5038482;28;20147;-93
2023/04/28 14:15:48;;;;;;;6.28;1.73;;;18.60;37.30;;;;;;5056567;28;20068;-93
2023/04/28 14:18:28;;;;;;;12.18;2.03;;;18.70;38.00;;;;;;5041842;28;20453;-92
2023/04/28 14:20:55;;;;;;;7.65;1.75;;;18.60;37.50;;;;;;5058715;28;20056;-91
2023/04/28 14:23:22;;;;;;;8.47;1.67;;;18.50;37.30;;;;;;5039491;28;20045;-93
2023/04/28 14:25:54;;;;;;;10.18;1.70;;;18.30;38.60;;;;;;5055285;28;20132;-94
2023/04/28 14:28:22;;;;;;;6.28;1.77;;;18.10;39.00;;;;;;5054984;28;20040;-95
2023/04/28 14:30:49;;;;;;;6.43;1.58;;;18.00;39.50;;;;;;5054557;28;20045;-94
2023/04/28 14:33:16;;;;;;;12.27;2.40;;;17.80;39.60;;;;;;5054899;28;20055;-94
2023/04/28 14:35:43;;;;;;;6.97;1.50;;;17.70;38.00;;;;;;5054844;28;20518;-94
2023/04/28 14:38:12;;;;;;;7.60;1.77;;;17.60;37.70;;;;;;5054383;28;20417;-93
2023/04/28 14:40:39;;;;;;;4.95;1.70;;;17.60;38.00;;;;;;5054566;28;20563;-94
2023/04/28 14:43:06;;;;;;;8.65;1.80;;;17.60;39.40;;;;;;5038373;28;20041;-93
2023/04/28 14:45:36;;;;;;;5.25;1.90;;;17.60;39.40;;;;;;5054797;28;20045;-93
2023/04/28 14:48:05;;;;;;;7.30;1.80;;;17.60;38.90;;;;;;5054827;28;20517;-93
2023/04/28 14:50:33;;;;;;;12.98;1.85;;;17.60;38.80;;;;;;5037830;28;20049;-93
2023/04/28 14:53:04;;;;;;;6.55;1.63;;;17.50;40.60;;;;;;5054210;28;20055;-93
2023/04/28 14:55:32;;;;;;;6.88;2.03;;;17.50;38.80;;;;;;5054368;28;20055;-93
2023/04/28 14:57:59;;;;;;;7.38;1.90;;;17.50;40.60;;;;;;5037654;28;20075;-93
2023/04/28 15:00:26;;;;;;;7.00;1.80;;;17.50;39.70;;;;;;5054231;28;20045;-94
2023/04/28 15:02:53;;;;;;;8.15;1.98;;;17.40;40.50;;;;;;5037697;28;20148;-94
2023/04/28 15:05:20;;;;;;;6.28;2.00;;;17.30;39.90;;;;;;5054476;28;20048;-94
2023/04/28 15:07:47;;;;;;;5.03;1.70;;;17.20;39.60;;;;;;5037621;28;20080;-93
2023/04/28 15:10:15;;;;;;;6.40;2.17;;;17.20;40.60;;;;;;5054032;28;20502;-94
2023/04/28 15:12:42;;;;;;;27.17;3.13;;;17.10;40.90;;;;;;5053941;28;20520;-94
2023/04/28 15:15:10;;;;;;;6.28;2.10;;;17.10;41.40;;;;;;5053896;28;20045;-94
2023/04/28 15:17:37;;;;;;;8.40;2.83;;;17.10;41.70;;;;;;5053738;28;20044;-93
2023/04/28 15:20:06;;;;;;;15.45;3.42;;;17.20;41.60;;;;;;5053761;28;20041;-93
2023/04/28 15:22:33;;;;;;;11.85;3.83;;;17.30;42.20;;;;;;5053893;28;20067;-93
2023/04/28 15:25:00;;;;;;;7.67;2.17;;;17.50;43.40;;;;;;5037209;28;20103;-93
2023/04/28 15:27:27;;;;;;;9.88;2.13;;;17.50;41.70;;;;;;5053609;28;20045;-93
2023/04/28 15:29:54;;;;;;;11.35;2.40;;;17.40;41.30;;;;;;5037624;28;20108;-94
2023/04/28 15:32:22;;;;;;;10.95;2.10;;;17.30;41.80;;;;;;5053617;28;21154;-93
2023/04/28 15:34:49;;;;;;;16.25;2.40;;;17.20;41.80;;;;;;5037295;28;20052;-94
2023/04/28 15:37:40;;;;;;;12.37;2.50;;;17.20;41.90;;;;;;5053313;28;20579;-94
2023/04/28 15:40:12;;;;;;;11.63;2.60;;;17.10;43.30;;;;;;5053420;28;20049;-94
2023/04/28 15:42:41;;;;;;;8.30;2.80;;;17.10;43.30;;;;;;5053927;28;20041;-95
2023/04/28 15:45:09;;;;;;;11.68;3.78;;;17.00;42.00;;;;;;5060233;28;20048;-95
2023/04/28 15:47:38;;;;;;;16.70;5.25;;;16.80;42.00;;;;;;5043848;28;20064;-96
2023/04/28 15:50:07;;;;;;;14.60;4.10;;;16.80;42.40;;;;;;5038820;28;20422;-96
2023/04/28 15:52:44;;;;;;;7.55;2.42;;;16.70;42.20;;;;;;5053572;28;20057;-95
2023/04/28 15:55:13;;;;;;;9.95;2.53;;;16.70;42.10;;;;;;5053473;28;20139;-95
2023/04/28 15:57:41;;;;;;;12.10;2.78;;;16.60;43.30;;;;;;5038156;28;20502;-95
2023/04/28 16:00:10;;;;;;;12.55;2.47;;;16.50;43.90;;;;;;5053610;28;20490;-95
2023/04/28 16:02:37;;;;;;;10.77;2.50;;;16.50;43.10;;;;;;5036643;28;20071;-96
2023/04/28 16:05:06;;;;;;;8.93;2.10;;;16.20;42.70;;;;;;5054207;28;20486;-95